sensor_id;sensor_type;location;lat;lon;timestamp;P1;durP1;ratioP1;P2;durP2;ratioP2
52650;SDS011;38537;47.226;39.702;2023-04-24T00:02:08;22.20;;;14.68;;
52650;SDS011;38537;47.226;39.702;2023-04-24T00:04:38;25.95;;;15.10;;
52650;SDS011;38537;47.226;39.702;2023-04-24T00:07:08;26.20;;;14.13;;
52650;SDS011;38537;47.226;39.702;2023-04-24T00:09:36;20.33;;;14.07;;
52650;SDS011;38537;47.226;39.702;2023-04-24T00:12:03;25.60;;;15.27;;
52650;SDS011;38537;47.226;39.702;2023-04-24T00:14:31;22.65;;;15.40;;
52650;SDS011;38537;47.226;39.702;2023-04-24T00:16:58;29.38;;;15.00;;
52650;SDS011;38537;47.226;39.702;2023-04-24T00:19:26;22.38;;;14.35;;
52650;SDS011;38537;47.226;39.702;2023-04-24T00:21:53;20.60;;;12.18;;
52650;SDS011;38537;47.226;39.702;2023-04-24T00:24:20;24.17;;;11.57;;
52650;SDS011;38537;47.226;39.702;2023-04-24T00:26:48;22.48;;;13.15;;
52650;SDS011;38537;47.226;39.702;2023-04-24T00:29:15;18.05;;;10.35;;
52650;SDS011;38537;47.226;39.702;2023-04-24T00:31:42;20.60;;;11.73;;
52650;SDS011;38537;47.226;39.702;2023-04-24T00:34:09;22.48;;;13.65;;
52650;SDS011;38537;47.226;39.702;2023-04-24T00:36:38;25.13;;;14.85;;
52650;SDS011;38537;47.226;39.702;2023-04-24T00:39:06;22.70;;;13.80;;
52650;SDS011;38537;47.226;39.702;2023-04-24T00:41:35;21.70;;;14.18;;
52650;SDS011;38537;47.226;39.702;2023-04-24T00:44:02;17.73;;;13.65;;
52650;SDS011;38537;47.226;39.702;2023-04-24T00:46:30;18.92;;;13.70;;
52650;SDS011;38537;47.226;39.702;2023-04-24T00:48:59;23.58;;;13.45;;
52650;SDS011;38537;47.226;39.702;2023-04-24T00:51:26;16.73;;;11.70;;
52650;SDS011;38537;47.226;39.702;2023-04-24T00:53:54;13.68;;;10.38;;
52650;SDS011;38537;47.226;39.702;2023-04-24T00:56:22;12.20;;;9.63;;
52650;SDS011;38537;47.226;39.702;2023-04-24T00:58:50;12.80;;;9.07;;
52650;SDS011;38537;47.226;39.702;2023-04-24T01:01:21;12.35;;;9.20;;
52650;SDS011;38537;47.226;39.702;2023-04-24T01:03:50;14.82;;;9.88;;
52650;SDS011;38537;47.226;39.702;2023-04-24T01:06:19;12.95;;;9.05;;
52650;SDS011;38537;47.226;39.702;2023-04-24T01:08:47;11.13;;;9.23;;
52650;SDS011;38537;47.226;39.702;2023-04-24T01:11:15;13.70;;;10.00;;
52650;SDS011;38537;47.226;39.702;2023-04-24T01:13:44;15.20;;;9.60;;
52650;SDS011;38537;47.226;39.702;2023-04-24T01:16:14;12.38;;;9.55;;
52650;SDS011;38537;47.226;39.702;2023-04-24T01:18:44;12.95;;;9.40;;
52650;SDS011;38537;47.226;39.702;2023-04-24T01:21:13;12.13;;;9.52;;
52650;SDS011;38537;47.226;39.702;2023-04-24T01:23:43;11.70;;;9.18;;
52650;SDS011;38537;47.226;39.702;2023-04-24T01:26:12;16.77;;;10.45;;
52650;SDS011;38537;47.226;39.702;2023-04-24T01:28:44;14.80;;;9.90;;
52650;SDS011;38537;47.226;39.702;2023-04-24T01:31:11;13.77;;;10.68;;
52650;SDS011;38537;47.226;39.702;2023-04-24T01:33:38;13.40;;;10.38;;
52650;SDS011;38537;47.226;39.702;2023-04-24T01:36:06;14.35;;;10.73;;
52650;SDS011;38537;47.226;39.702;2023-04-24T01:38:34;13.48;;;10.20;;
52650;SDS011;38537;47.226;39.702;2023-04-24T01:41:01;15.20;;;9.98;;
52650;SDS011;38537;47.226;39.702;2023-04-24T01:43:29;14.20;;;10.63;;
52650;SDS011;38537;47.226;39.702;2023-04-24T01:45:57;12.98;;;10.68;;
52650;SDS011;38537;47.226;39.702;2023-04-24T01:48:26;13.55;;;9.88;;
52650;SDS011;38537;47.226;39.702;2023-04-24T01:50:53;13.65;;;10.50;;
52650;SDS011;38537;47.226;39.702;2023-04-24T01:53:21;13.13;;;10.07;;
52650;SDS011;38537;47.226;39.702;2023-04-24T01:55:48;15.45;;;10.13;;
52650;SDS011;38537;47.226;39.702;2023-04-24T01:58:15;14.05;;;9.60;;
52650;SDS011;38537;47.226;39.702;2023-04-24T02:00:42;12.52;;;9.35;;
52650;SDS011;38537;47.226;39.702;2023-04-24T02:03:10;12.43;;;9.30;;
52650;SDS011;38537;47.226;39.702;2023-04-24T02:05:37;12.05;;;9.25;;
52650;SDS011;38537;47.226;39.702;2023-04-24T02:08:04;11.85;;;9.25;;
52650;SDS011;38537;47.226;39.702;2023-04-24T02:10:36;9.40;;;7.00;;
52650;SDS011;38537;47.226;39.702;2023-04-24T02:13:04;12.98;;;8.63;;
52650;SDS011;38537;47.226;39.702;2023-04-24T02:15:31;14.02;;;8.73;;
52650;SDS011;38537;47.226;39.702;2023-04-24T02:17:59;11.48;;;9.25;;
52650;SDS011;38537;47.226;39.702;2023-04-24T02:20:26;14.38;;;9.75;;
52650;SDS011;38537;47.226;39.702;2023-04-24T02:22:58;13.15;;;10.00;;
52650;SDS011;38537;47.226;39.702;2023-04-24T02:25:25;12.80;;;9.00;;
52650;SDS011;38537;47.226;39.702;2023-04-24T02:27:55;12.40;;;9.05;;
52650;SDS011;38537;47.226;39.702;2023-04-24T02:30:22;15.43;;;9.48;;
52650;SDS011;38537;47.226;39.702;2023-04-24T02:32:49;16.83;;;9.95;;
52650;SDS011;38537;47.226;39.702;2023-04-24T02:35:17;12.50;;;8.68;;
52650;SDS011;38537;47.226;39.702;2023-04-24T02:37:44;14.32;;;9.00;;
52650;SDS011;38537;47.226;39.702;2023-04-24T02:40:11;15.50;;;10.80;;
52650;SDS011;38537;47.226;39.702;2023-04-24T02:42:39;22.48;;;13.88;;
52650;SDS011;38537;47.226;39.702;2023-04-24T02:45:06;21.27;;;12.77;;
52650;SDS011;38537;47.226;39.702;2023-04-24T02:47:34;27.83;;;13.75;;
52650;SDS011;38537;47.226;39.702;2023-04-24T02:50:02;23.42;;;14.07;;
52650;SDS011;38537;47.226;39.702;2023-04-24T02:52:30;21.75;;;14.20;;
52650;SDS011;38537;47.226;39.702;2023-04-24T02:54:57;27.27;;;13.95;;
52650;SDS011;38537;47.226;39.702;2023-04-24T02:57:24;25.23;;;12.45;;
52650;SDS011;38537;47.226;39.702;2023-04-24T02:59:51;19.30;;;12.48;;
52650;SDS011;38537;47.226;39.702;2023-04-24T03:02:19;18.80;;;12.60;;
52650;SDS011;38537;47.226;39.702;2023-04-24T03:04:47;21.80;;;13.15;;
52650;SDS011;38537;47.226;39.702;2023-04-24T03:07:15;18.48;;;11.90;;
52650;SDS011;38537;47.226;39.702;2023-04-24T03:09:42;21.60;;;13.55;;
52650;SDS011;38537;47.226;39.702;2023-04-24T03:12:10;24.88;;;15.13;;
52650;SDS011;38537;47.226;39.702;2023-04-24T03:14:38;19.02;;;13.00;;
52650;SDS011;38537;47.226;39.702;2023-04-24T03:17:05;24.45;;;14.60;;
52650;SDS011;38537;47.226;39.702;2023-04-24T03:19:33;21.70;;;12.43;;
52650;SDS011;38537;47.226;39.702;2023-04-24T03:22:05;19.15;;;13.00;;
52650;SDS011;38537;47.226;39.702;2023-04-24T03:24:33;16.83;;;10.60;;
52650;SDS011;38537;47.226;39.702;2023-04-24T03:27:01;11.50;;;9.05;;
52650;SDS011;38537;47.226;39.702;2023-04-24T03:29:48;10.45;;;8.25;;
52650;SDS011;38537;47.226;39.702;2023-04-24T03:32:22;11.60;;;8.35;;
52650;SDS011;38537;47.226;39.702;2023-04-24T03:34:51;12.18;;;8.07;;
52650;SDS011;38537;47.226;39.702;2023-04-24T03:37:19;12.48;;;8.38;;
52650;SDS011;38537;47.226;39.702;2023-04-24T03:39:55;11.82;;;8.43;;
52650;SDS011;38537;47.226;39.702;2023-04-24T03:42:24;11.73;;;8.05;;
52650;SDS011;38537;47.226;39.702;2023-04-24T03:44:54;14.77;;;8.57;;
52650;SDS011;38537;47.226;39.702;2023-04-24T03:47:26;13.80;;;8.40;;
52650;SDS011;38537;47.226;39.702;2023-04-24T03:49:57;17.88;;;9.55;;
52650;SDS011;38537;47.226;39.702;2023-04-24T03:52:24;16.90;;;9.90;;
52650;SDS011;38537;47.226;39.702;2023-04-24T03:54:52;14.15;;;10.50;;
52650;SDS011;38537;47.226;39.702;2023-04-24T03:57:19;14.27;;;8.32;;
52650;SDS011;38537;47.226;39.702;2023-04-24T03:59:59;9.43;;;7.00;;
52650;SDS011;38537;47.226;39.702;2023-04-24T04:02:30;11.60;;;7.25;;
52650;SDS011;38537;47.226;39.702;2023-04-24T04:04:58;12.82;;;6.82;;
52650;SDS011;38537;47.226;39.702;2023-04-24T04:07:26;11.00;;;6.43;;
52650;SDS011;38537;47.226;39.702;2023-04-24T04:09:53;13.30;;;6.47;;
52650;SDS011;38537;47.226;39.702;2023-04-24T04:12:22;9.32;;;6.07;;
52650;SDS011;38537;47.226;39.702;2023-04-24T04:14:49;9.32;;;6.32;;
52650;SDS011;38537;47.226;39.702;2023-04-24T04:17:17;7.75;;;5.70;;
52650;SDS011;38537;47.226;39.702;2023-04-24T04:19:45;8.57;;;5.85;;
52650;SDS011;38537;47.226;39.702;2023-04-24T04:22:13;7.13;;;5.80;;
52650;SDS011;38537;47.226;39.702;2023-04-24T04:24:43;9.57;;;5.47;;
52650;SDS011;38537;47.226;39.702;2023-04-24T04:27:12;7.65;;;5.40;;
52650;SDS011;38537;47.226;39.702;2023-04-24T04:30:02;7.28;;;4.95;;
52650;SDS011;38537;47.226;39.702;2023-04-24T04:32:39;11.27;;;5.65;;
52650;SDS011;38537;47.226;39.702;2023-04-24T04:35:07;8.10;;;5.45;;
52650;SDS011;38537;47.226;39.702;2023-04-24T04:37:36;8.27;;;5.40;;
52650;SDS011;38537;47.226;39.702;2023-04-24T04:40:12;8.18;;;5.47;;
52650;SDS011;38537;47.226;39.702;2023-04-24T04:42:48;10.90;;;6.72;;
52650;SDS011;38537;47.226;39.702;2023-04-24T04:45:21;6.85;;;5.20;;
52650;SDS011;38537;47.226;39.702;2023-04-24T04:48:08;6.90;;;5.13;;
52650;SDS011;38537;47.226;39.702;2023-04-24T04:50:36;9.55;;;5.53;;
52650;SDS011;38537;47.226;39.702;2023-04-24T04:53:06;8.73;;;5.40;;
52650;SDS011;38537;47.226;39.702;2023-04-24T04:55:37;9.65;;;5.70;;
52650;SDS011;38537;47.226;39.702;2023-04-24T04:58:09;9.93;;;5.68;;
52650;SDS011;38537;47.226;39.702;2023-04-24T05:00:37;9.65;;;5.10;;
52650;SDS011;38537;47.226;39.702;2023-04-24T05:03:23;13.27;;;5.63;;
52650;SDS011;38537;47.226;39.702;2023-04-24T05:05:57;12.95;;;6.22;;
52650;SDS011;38537;47.226;39.702;2023-04-24T05:08:25;14.43;;;7.28;;
52650;SDS011;38537;47.226;39.702;2023-04-24T05:10:54;16.48;;;8.35;;
52650;SDS011;38537;47.226;39.702;2023-04-24T05:13:23;11.60;;;7.78;;
52650;SDS011;38537;47.226;39.702;2023-04-24T05:16:09;12.82;;;7.70;;
52650;SDS011;38537;47.226;39.702;2023-04-24T05:18:37;9.48;;;5.80;;
52650;SDS011;38537;47.226;39.702;2023-04-24T05:21:06;10.63;;;6.80;;
52650;SDS011;38537;47.226;39.702;2023-04-24T05:23:35;13.35;;;8.40;;
52650;SDS011;38537;47.226;39.702;2023-04-24T05:26:03;19.33;;;10.82;;
52650;SDS011;38537;47.226;39.702;2023-04-24T05:28:33;12.77;;;8.02;;
52650;SDS011;38537;47.226;39.702;2023-04-24T05:31:07;10.07;;;6.60;;
52650;SDS011;38537;47.226;39.702;2023-04-24T05:33:35;9.70;;;6.63;;
52650;SDS011;38537;47.226;39.702;2023-04-24T05:36:02;9.63;;;5.65;;
52650;SDS011;38537;47.226;39.702;2023-04-24T05:38:30;10.40;;;5.50;;
52650;SDS011;38537;47.226;39.702;2023-04-24T05:40:59;11.07;;;5.60;;
52650;SDS011;38537;47.226;39.702;2023-04-24T05:43:26;6.57;;;4.60;;
52650;SDS011;38537;47.226;39.702;2023-04-24T05:45:53;11.13;;;5.03;;
52650;SDS011;38537;47.226;39.702;2023-04-24T05:48:22;10.48;;;5.22;;
52650;SDS011;38537;47.226;39.702;2023-04-24T05:50:50;8.20;;;4.80;;
52650;SDS011;38537;47.226;39.702;2023-04-24T05:53:17;8.15;;;4.57;;
52650;SDS011;38537;47.226;39.702;2023-04-24T05:55:45;7.60;;;4.47;;
52650;SDS011;38537;47.226;39.702;2023-04-24T05:58:13;5.13;;;3.35;;
52650;SDS011;38537;47.226;39.702;2023-04-24T06:00:41;5.38;;;3.75;;
52650;SDS011;38537;47.226;39.702;2023-04-24T06:03:11;7.60;;;4.38;;
52650;SDS011;38537;47.226;39.702;2023-04-24T06:05:39;7.40;;;4.30;;
52650;SDS011;38537;47.226;39.702;2023-04-24T06:08:07;7.93;;;4.40;;
52650;SDS011;38537;47.226;39.702;2023-04-24T06:10:39;13.20;;;4.18;;
52650;SDS011;38537;47.226;39.702;2023-04-24T06:13:08;8.60;;;4.43;;
52650;SDS011;38537;47.226;39.702;2023-04-24T06:15:38;7.68;;;4.28;;
52650;SDS011;38537;47.226;39.702;2023-04-24T06:18:08;14.52;;;4.50;;
52650;SDS011;38537;47.226;39.702;2023-04-24T06:20:38;7.25;;;4.57;;
52650;SDS011;38537;47.226;39.702;2023-04-24T06:23:08;9.55;;;4.82;;
52650;SDS011;38537;47.226;39.702;2023-04-24T06:25:35;7.72;;;4.65;;
52650;SDS011;38537;47.226;39.702;2023-04-24T06:28:03;8.30;;;4.57;;
52650;SDS011;38537;47.226;39.702;2023-04-24T06:30:30;7.85;;;4.30;;
52650;SDS011;38537;47.226;39.702;2023-04-24T06:32:58;8.98;;;4.38;;
52650;SDS011;38537;47.226;39.702;2023-04-24T06:35:44;6.95;;;3.70;;
52650;SDS011;38537;47.226;39.702;2023-04-24T06:38:11;6.05;;;4.07;;
52650;SDS011;38537;47.226;39.702;2023-04-24T06:40:39;6.60;;;4.03;;
52650;SDS011;38537;47.226;39.702;2023-04-24T06:43:06;5.82;;;3.80;;
52650;SDS011;38537;47.226;39.702;2023-04-24T06:45:33;4.60;;;3.83;;
52650;SDS011;38537;47.226;39.702;2023-04-24T06:48:01;5.85;;;3.67;;
52650;SDS011;38537;47.226;39.702;2023-04-24T06:50:28;6.07;;;3.70;;
52650;SDS011;38537;47.226;39.702;2023-04-24T06:52:55;7.50;;;3.78;;
52650;SDS011;38537;47.226;39.702;2023-04-24T06:55:22;7.57;;;4.10;;
52650;SDS011;38537;47.226;39.702;2023-04-24T06:57:50;7.50;;;3.65;;
52650;SDS011;38537;47.226;39.702;2023-04-24T07:00:17;5.93;;;3.20;;
52650;SDS011;38537;47.226;39.702;2023-04-24T07:02:44;6.78;;;3.85;;
52650;SDS011;38537;47.226;39.702;2023-04-24T07:05:12;8.93;;;3.50;;
52650;SDS011;38537;47.226;39.702;2023-04-24T07:07:39;7.90;;;3.47;;
52650;SDS011;38537;47.226;39.702;2023-04-24T07:10:08;5.38;;;3.17;;
52650;SDS011;38537;47.226;39.702;2023-04-24T07:12:35;6.72;;;3.83;;
52650;SDS011;38537;47.226;39.702;2023-04-24T07:15:04;6.68;;;3.38;;
52650;SDS011;38537;47.226;39.702;2023-04-24T07:17:33;6.75;;;3.72;;
52650;SDS011;38537;47.226;39.702;2023-04-24T07:20:01;6.95;;;3.40;;
52650;SDS011;38537;47.226;39.702;2023-04-24T07:22:28;4.97;;;3.13;;
52650;SDS011;38537;47.226;39.702;2023-04-24T07:24:56;6.50;;;3.13;;
52650;SDS011;38537;47.226;39.702;2023-04-24T07:27:23;5.43;;;3.10;;
52650;SDS011;38537;47.226;39.702;2023-04-24T07:29:51;7.45;;;3.60;;
52650;SDS011;38537;47.226;39.702;2023-04-24T07:32:18;8.90;;;3.50;;
52650;SDS011;38537;47.226;39.702;2023-04-24T07:34:45;5.35;;;3.03;;
52650;SDS011;38537;47.226;39.702;2023-04-24T07:37:12;9.70;;;3.72;;
52650;SDS011;38537;47.226;39.702;2023-04-24T07:39:40;8.15;;;3.97;;
52650;SDS011;38537;47.226;39.702;2023-04-24T07:42:08;9.07;;;3.25;;
52650;SDS011;38537;47.226;39.702;2023-04-24T07:44:35;4.90;;;2.55;;
52650;SDS011;38537;47.226;39.702;2023-04-24T07:47:02;5.05;;;2.35;;
52650;SDS011;38537;47.226;39.702;2023-04-24T07:49:30;3.38;;;2.50;;
52650;SDS011;38537;47.226;39.702;2023-04-24T07:51:57;4.88;;;2.45;;
52650;SDS011;38537;47.226;39.702;2023-04-24T07:54:27;6.78;;;2.85;;
52650;SDS011;38537;47.226;39.702;2023-04-24T07:56:55;6.43;;;2.80;;
52650;SDS011;38537;47.226;39.702;2023-04-24T07:59:22;5.82;;;2.60;;
52650;SDS011;38537;47.226;39.702;2023-04-24T08:01:50;3.72;;;2.60;;
52650;SDS011;38537;47.226;39.702;2023-04-24T08:04:17;5.72;;;3.00;;
52650;SDS011;38537;47.226;39.702;2023-04-24T08:06:46;4.97;;;3.00;;
52650;SDS011;38537;47.226;39.702;2023-04-24T08:09:14;7.55;;;2.72;;
52650;SDS011;38537;47.226;39.702;2023-04-24T08:11:41;5.68;;;2.83;;
52650;SDS011;38537;47.226;39.702;2023-04-24T08:14:09;6.07;;;2.83;;
52650;SDS011;38537;47.226;39.702;2023-04-24T08:16:36;7.70;;;2.80;;
52650;SDS011;38537;47.226;39.702;2023-04-24T08:19:03;3.88;;;2.55;;
52650;SDS011;38537;47.226;39.702;2023-04-24T08:21:30;4.63;;;2.90;;
52650;SDS011;38537;47.226;39.702;2023-04-24T08:23:58;5.95;;;2.92;;
52650;SDS011;38537;47.226;39.702;2023-04-24T08:26:25;4.90;;;3.10;;
52650;SDS011;38537;47.226;39.702;2023-04-24T08:28:53;7.55;;;3.00;;
52650;SDS011;38537;47.226;39.702;2023-04-24T08:31:20;5.40;;;2.97;;
52650;SDS011;38537;47.226;39.702;2023-04-24T08:33:47;8.90;;;3.30;;
52650;SDS011;38537;47.226;39.702;2023-04-24T08:36:14;4.20;;;3.03;;
52650;SDS011;38537;47.226;39.702;2023-04-24T08:38:44;6.18;;;3.08;;
52650;SDS011;38537;47.226;39.702;2023-04-24T08:41:13;4.82;;;3.30;;
52650;SDS011;38537;47.226;39.702;2023-04-24T08:43:42;7.75;;;3.50;;
52650;SDS011;38537;47.226;39.702;2023-04-24T08:46:10;5.97;;;3.10;;
52650;SDS011;38537;47.226;39.702;2023-04-24T08:48:39;5.82;;;3.22;;
52650;SDS011;38537;47.226;39.702;2023-04-24T08:51:07;3.50;;;2.50;;
52650;SDS011;38537;47.226;39.702;2023-04-24T08:53:35;5.00;;;3.35;;
52650;SDS011;38537;47.226;39.702;2023-04-24T08:56:02;3.47;;;3.10;;
52650;SDS011;38537;47.226;39.702;2023-04-24T08:58:31;9.10;;;3.45;;
52650;SDS011;38537;47.226;39.702;2023-04-24T09:00:58;3.95;;;3.30;;
52650;SDS011;38537;47.226;39.702;2023-04-24T09:03:27;9.93;;;3.10;;
52650;SDS011;38537;47.226;39.702;2023-04-24T09:05:55;7.32;;;2.70;;
52650;SDS011;38537;47.226;39.702;2023-04-24T09:08:24;6.90;;;3.22;;
52650;SDS011;38537;47.226;39.702;2023-04-24T09:10:53;6.55;;;3.05;;
52650;SDS011;38537;47.226;39.702;2023-04-24T09:13:20;4.93;;;2.83;;
52650;SDS011;38537;47.226;39.702;2023-04-24T09:15:48;5.70;;;2.80;;
52650;SDS011;38537;47.226;39.702;2023-04-24T09:18:15;3.30;;;2.70;;
52650;SDS011;38537;47.226;39.702;2023-04-24T09:20:56;5.13;;;2.72;;
52650;SDS011;38537;47.226;39.702;2023-04-24T09:23:29;6.22;;;2.75;;
52650;SDS011;38537;47.226;39.702;2023-04-24T09:25:58;5.72;;;2.63;;
52650;SDS011;38537;47.226;39.702;2023-04-24T09:31:05;3.33;;;2.75;;
52650;SDS011;38537;47.226;39.702;2023-04-24T09:33:35;6.90;;;2.80;;
52650;SDS011;38537;47.226;39.702;2023-04-24T09:36:03;3.47;;;2.60;;
52650;SDS011;38537;47.226;39.702;2023-04-24T09:38:37;4.80;;;2.75;;
52650;SDS011;38537;47.226;39.702;2023-04-24T09:41:06;4.68;;;2.80;;
52650;SDS011;38537;47.226;39.702;2023-04-24T09:43:35;5.35;;;2.65;;
52650;SDS011;38537;47.226;39.702;2023-04-24T09:46:04;5.07;;;3.00;;
52650;SDS011;38537;47.226;39.702;2023-04-24T09:48:34;7.03;;;2.97;;
52650;SDS011;38537;47.226;39.702;2023-04-24T09:51:04;5.28;;;2.72;;
52650;SDS011;38537;47.226;39.702;2023-04-24T09:53:33;5.57;;;2.97;;
52650;SDS011;38537;47.226;39.702;2023-04-24T09:56:08;5.60;;;3.08;;
52650;SDS011;38537;47.226;39.702;2023-04-24T09:58:36;4.07;;;2.72;;
52650;SDS011;38537;47.226;39.702;2023-04-24T10:01:04;5.38;;;2.80;;
52650;SDS011;38537;47.226;39.702;2023-04-24T10:03:32;5.05;;;2.58;;
52650;SDS011;38537;47.226;39.702;2023-04-24T10:06:01;5.40;;;2.90;;
52650;SDS011;38537;47.226;39.702;2023-04-24T10:08:38;4.68;;;2.92;;
52650;SDS011;38537;47.226;39.702;2023-04-24T10:11:06;5.55;;;3.05;;
52650;SDS011;38537;47.226;39.702;2023-04-24T10:13:34;7.82;;;3.15;;
52650;SDS011;38537;47.226;39.702;2023-04-24T10:16:02;6.40;;;2.80;;
52650;SDS011;38537;47.226;39.702;2023-04-24T10:18:31;5.10;;;2.95;;
52650;SDS011;38537;47.226;39.702;2023-04-24T10:20:59;7.22;;;2.67;;
52650;SDS011;38537;47.226;39.702;2023-04-24T10:23:27;6.28;;;2.72;;
52650;SDS011;38537;47.226;39.702;2023-04-24T10:25:57;4.30;;;2.47;;
52650;SDS011;38537;47.226;39.702;2023-04-24T10:28:27;5.45;;;2.50;;
52650;SDS011;38537;47.226;39.702;2023-04-24T10:30:55;5.13;;;2.60;;
52650;SDS011;38537;47.226;39.702;2023-04-24T10:33:23;5.57;;;2.45;;
52650;SDS011;38537;47.226;39.702;2023-04-24T10:35:52;3.53;;;2.45;;
52650;SDS011;38537;47.226;39.702;2023-04-24T10:38:26;5.07;;;2.40;;
52650;SDS011;38537;47.226;39.702;2023-04-24T10:41:11;9.35;;;2.90;;
52650;SDS011;38537;47.226;39.702;2023-04-24T10:46:33;3.92;;;2.60;;
52650;SDS011;38537;47.226;39.702;2023-04-24T10:49:03;5.30;;;2.72;;
52650;SDS011;38537;47.226;39.702;2023-04-24T10:59:49;5.97;;;2.70;;
52650;SDS011;38537;47.226;39.702;2023-04-24T11:02:20;3.65;;;2.80;;
52650;SDS011;38537;47.226;39.702;2023-04-24T11:05:04;8.57;;;3.75;;
52650;SDS011;38537;47.226;39.702;2023-04-24T11:10:38;6.00;;;3.28;;
52650;SDS011;38537;47.226;39.702;2023-04-24T11:15:43;5.57;;;3.58;;
52650;SDS011;38537;47.226;39.702;2023-04-24T11:18:14;4.78;;;3.00;;
52650;SDS011;38537;47.226;39.702;2023-04-24T11:20:43;5.85;;;3.22;;
52650;SDS011;38537;47.226;39.702;2023-04-24T11:23:12;6.43;;;3.42;;
52650;SDS011;38537;47.226;39.702;2023-04-24T11:25:41;5.40;;;3.60;;
52650;SDS011;38537;47.226;39.702;2023-04-24T11:28:08;4.00;;;3.10;;
52650;SDS011;38537;47.226;39.702;2023-04-24T11:30:45;6.38;;;3.22;;
52650;SDS011;38537;47.226;39.702;2023-04-24T11:33:12;4.03;;;3.03;;
52650;SDS011;38537;47.226;39.702;2023-04-24T11:35:48;6.07;;;3.17;;
52650;SDS011;38537;47.226;39.702;2023-04-24T11:38:18;5.72;;;3.50;;
52650;SDS011;38537;47.226;39.702;2023-04-24T11:40:51;6.15;;;4.10;;
52650;SDS011;38537;47.226;39.702;2023-04-24T11:43:20;6.80;;;3.42;;
52650;SDS011;38537;47.226;39.702;2023-04-24T11:45:49;4.82;;;3.80;;
52650;SDS011;38537;47.226;39.702;2023-04-24T11:48:18;6.53;;;3.38;;
52650;SDS011;38537;47.226;39.702;2023-04-24T11:50:49;5.05;;;3.70;;
52650;SDS011;38537;47.226;39.702;2023-04-24T11:53:19;5.68;;;3.70;;
52650;SDS011;38537;47.226;39.702;2023-04-24T11:55:49;5.70;;;3.90;;
52650;SDS011;38537;47.226;39.702;2023-04-24T11:58:16;6.25;;;4.00;;
52650;SDS011;38537;47.226;39.702;2023-04-24T12:00:55;5.47;;;3.40;;
52650;SDS011;38537;47.226;39.702;2023-04-24T12:03:28;4.10;;;3.30;;
52650;SDS011;38537;47.226;39.702;2023-04-24T12:06:08;5.70;;;3.47;;
52650;SDS011;38537;47.226;39.702;2023-04-24T12:08:37;5.57;;;4.40;;
52650;SDS011;38537;47.226;39.702;2023-04-24T12:11:05;5.72;;;4.28;;
52650;SDS011;38537;47.226;39.702;2023-04-24T12:13:36;4.95;;;3.92;;
52650;SDS011;38537;47.226;39.702;2023-04-24T12:16:04;7.30;;;4.25;;
52650;SDS011;38537;47.226;39.702;2023-04-24T12:18:33;5.50;;;4.80;;
52650;SDS011;38537;47.226;39.702;2023-04-24T12:21:22;4.97;;;4.43;;
52650;SDS011;38537;47.226;39.702;2023-04-24T12:23:49;5.85;;;4.40;;
52650;SDS011;38537;47.226;39.702;2023-04-24T12:26:18;6.43;;;4.90;;
52650;SDS011;38537;47.226;39.702;2023-04-24T12:28:47;6.18;;;4.50;;
52650;SDS011;38537;47.226;39.702;2023-04-24T12:31:18;5.88;;;4.05;;
52650;SDS011;38537;47.226;39.702;2023-04-24T12:33:47;5.15;;;4.40;;
52650;SDS011;38537;47.226;39.702;2023-04-24T12:36:14;5.43;;;4.60;;
52650;SDS011;38537;47.226;39.702;2023-04-24T12:38:43;7.90;;;5.80;;
52650;SDS011;38537;47.226;39.702;2023-04-24T12:41:13;5.85;;;5.15;;
52650;SDS011;38537;47.226;39.702;2023-04-24T12:43:51;8.02;;;6.07;;
52650;SDS011;38537;47.226;39.702;2023-04-24T12:46:19;7.32;;;6.07;;
52650;SDS011;38537;47.226;39.702;2023-04-24T12:48:48;6.53;;;5.53;;
52650;SDS011;38537;47.226;39.702;2023-04-24T12:51:15;6.63;;;5.40;;
52650;SDS011;38537;47.226;39.702;2023-04-24T12:53:43;9.35;;;6.20;;
52650;SDS011;38537;47.226;39.702;2023-04-24T12:56:10;7.95;;;5.28;;
52650;SDS011;38537;47.226;39.702;2023-04-24T12:58:37;6.15;;;5.20;;
52650;SDS011;38537;47.226;39.702;2023-04-24T13:01:04;7.28;;;4.80;;
52650;SDS011;38537;47.226;39.702;2023-04-24T13:03:32;9.25;;;4.93;;
52650;SDS011;38537;47.226;39.702;2023-04-24T13:05:59;6.82;;;4.95;;
52650;SDS011;38537;47.226;39.702;2023-04-24T13:08:28;6.43;;;4.43;;
52650;SDS011;38537;47.226;39.702;2023-04-24T13:10:55;5.18;;;4.38;;
52650;SDS011;38537;47.226;39.702;2023-04-24T13:13:22;6.75;;;4.10;;
52650;SDS011;38537;47.226;39.702;2023-04-24T13:15:49;6.47;;;4.03;;
52650;SDS011;38537;47.226;39.702;2023-04-24T13:18:16;4.22;;;3.40;;
52650;SDS011;38537;47.226;39.702;2023-04-24T13:20:44;5.63;;;3.50;;
52650;SDS011;38537;47.226;39.702;2023-04-24T13:23:12;6.15;;;3.70;;
52650;SDS011;38537;47.226;39.702;2023-04-24T13:25:40;3.55;;;3.25;;
52650;SDS011;38537;47.226;39.702;2023-04-24T13:28:08;5.35;;;4.10;;
52650;SDS011;38537;47.226;39.702;2023-04-24T13:30:36;6.75;;;3.63;;
52650;SDS011;38537;47.226;39.702;2023-04-24T13:33:03;6.60;;;3.65;;
52650;SDS011;38537;47.226;39.702;2023-04-24T13:35:31;4.82;;;3.72;;
52650;SDS011;38537;47.226;39.702;2023-04-24T13:37:58;5.95;;;3.38;;
52650;SDS011;38537;47.226;39.702;2023-04-24T13:40:27;4.75;;;3.33;;
52650;SDS011;38537;47.226;39.702;2023-04-24T13:42:54;8.25;;;3.55;;
52650;SDS011;38537;47.226;39.702;2023-04-24T13:45:22;6.68;;;3.47;;
52650;SDS011;38537;47.226;39.702;2023-04-24T13:47:51;3.47;;;3.17;;
52650;SDS011;38537;47.226;39.702;2023-04-24T13:50:21;5.40;;;3.30;;
52650;SDS011;38537;47.226;39.702;2023-04-24T13:52:49;4.15;;;3.38;;
52650;SDS011;38537;47.226;39.702;2023-04-24T13:55:16;4.80;;;3.20;;
52650;SDS011;38537;47.226;39.702;2023-04-24T13:57:43;4.93;;;3.25;;
52650;SDS011;38537;47.226;39.702;2023-04-24T14:00:11;5.40;;;3.83;;
52650;SDS011;38537;47.226;39.702;2023-04-24T14:02:38;4.65;;;3.40;;
52650;SDS011;38537;47.226;39.702;2023-04-24T14:05:06;8.77;;;3.40;;
52650;SDS011;38537;47.226;39.702;2023-04-24T14:07:34;4.40;;;4.00;;
52650;SDS011;38537;47.226;39.702;2023-04-24T14:10:02;4.97;;;3.63;;
52650;SDS011;38537;47.226;39.702;2023-04-24T14:12:30;5.88;;;3.70;;
52650;SDS011;38537;47.226;39.702;2023-04-24T14:14:57;5.72;;;3.70;;
52650;SDS011;38537;47.226;39.702;2023-04-24T14:17:24;4.82;;;3.40;;
52650;SDS011;38537;47.226;39.702;2023-04-24T14:19:52;4.65;;;3.50;;
52650;SDS011;38537;47.226;39.702;2023-04-24T14:22:23;5.15;;;3.35;;
52650;SDS011;38537;47.226;39.702;2023-04-24T14:24:50;5.88;;;3.25;;
52650;SDS011;38537;47.226;39.702;2023-04-24T14:27:17;4.88;;;3.20;;
52650;SDS011;38537;47.226;39.702;2023-04-24T14:29:44;6.10;;;3.40;;
52650;SDS011;38537;47.226;39.702;2023-04-24T14:32:12;6.00;;;3.42;;
52650;SDS011;38537;47.226;39.702;2023-04-24T14:34:41;4.15;;;3.20;;
52650;SDS011;38537;47.226;39.702;2023-04-24T14:37:09;5.63;;;3.75;;
52650;SDS011;38537;47.226;39.702;2023-04-24T14:39:36;4.82;;;3.42;;
52650;SDS011;38537;47.226;39.702;2023-04-24T14:42:03;4.90;;;3.60;;
52650;SDS011;38537;47.226;39.702;2023-04-24T14:44:31;4.97;;;3.10;;
52650;SDS011;38537;47.226;39.702;2023-04-24T14:46:58;4.28;;;3.30;;
52650;SDS011;38537;47.226;39.702;2023-04-24T14:49:26;3.83;;;3.15;;
52650;SDS011;38537;47.226;39.702;2023-04-24T14:51:53;5.70;;;3.90;;
52650;SDS011;38537;47.226;39.702;2023-04-24T14:54:21;5.45;;;3.30;;
52650;SDS011;38537;47.226;39.702;2023-04-24T14:56:51;3.97;;;3.40;;
52650;SDS011;38537;47.226;39.702;2023-04-24T14:59:18;5.20;;;4.40;;